createdAt,value
2019-04-30T13:18:54.854Z,98908.23
2019-04-30T13:21:24.270Z,98914.31
2019-04-30T13:23:53.735Z,98916.27
2019-04-30T13:26:23.145Z,98919.79
2019-04-30T13:29:17.818Z,98929.53
2019-04-30T13:31:50.163Z,98940.31
2019-04-30T13:34:36.128Z,98935.80
2019-04-30T13:37:05.545Z,98949.80
2019-04-30T13:39:49.858Z,98956.39
2019-04-30T13:42:20.035Z,98960.82
2019-04-30T13:44:49.382Z,98964.52
2019-04-30T13:47:19.251Z,98970.10
2019-04-30T13:49:49.501Z,98953.45
2019-04-30T13:52:19.017Z,98932.41
2019-04-30T13:54:48.469Z,98946.63
2019-04-30T13:57:17.885Z,98968.28
2019-04-30T13:59:50.798Z,98962.53
2019-04-30T14:02:18.665Z,98967.22
2019-04-30T14:05:19.427Z,98971.08
2019-04-30T14:08:09.472Z,98957.20
2019-04-30T14:10:41.972Z,98963.28
2019-04-30T14:13:12.057Z,98975.61
2019-04-30T14:15:42.014Z,98989.02
2019-04-30T14:18:11.445Z,98996.27
2019-04-30T14:20:40.869Z,98997.25
2019-04-30T14:23:10.723Z,98987.93
2019-04-30T14:25:40.333Z,98981.11
2019-04-30T14:28:09.783Z,98969.60
2019-04-30T14:30:39.477Z,98969.73
2019-04-30T14:33:09.544Z,98961.46
2019-04-30T14:35:39.086Z,98967.78
2019-04-30T14:38:09.103Z,98975.18
2019-04-30T14:40:40.448Z,98976.81
2019-04-30T14:43:15.357Z,98978.33
2019-04-30T14:46:09.560Z,98969.69
2019-04-30T14:48:44.492Z,98974.30
2019-04-30T14:51:14.485Z,98970.13
2019-04-30T14:54:05.797Z,98953.02
2019-04-30T14:56:43.321Z,98955.09
2019-04-30T14:59:43.937Z,98941.69
2019-04-30T15:02:32.557Z,98942.16
2019-04-30T15:05:01.989Z,98940.02
2019-04-30T15:07:31.472Z,98953.03
2019-04-30T15:10:00.896Z,98957.06
2019-04-30T15:12:30.311Z,98966.34
2019-04-30T15:14:59.734Z,98977.97
2019-04-30T15:17:29.247Z,98974.19
2019-04-30T15:19:58.898Z,98965.08
2019-04-30T15:22:29.086Z,98962.41
2019-04-30T15:24:59.196Z,98957.69
2019-04-30T15:27:29.021Z,98955.99
2019-04-30T15:29:58.863Z,98954.83
2019-04-30T15:32:28.674Z,98964.84
2019-04-30T15:34:58.896Z,98960.66
2019-04-30T15:37:28.738Z,98959.48
2019-04-30T15:39:59.119Z,98959.05
2019-04-30T15:42:28.623Z,98955.98
2019-04-30T15:44:59.469Z,98960.99
2019-04-30T15:47:28.955Z,98962.13
2019-04-30T15:50:01.860Z,98958.85
2019-04-30T15:52:29.557Z,98963.22
2019-04-30T15:54:59.310Z,98965.97
2019-04-30T15:57:29.532Z,98972.60
2019-04-30T15:59:59.078Z,98977.45
2019-04-30T16:02:31.060Z,98980.47
2019-04-30T16:05:21.944Z,98980.30
2019-04-30T16:08:00.893Z,98982.73
2019-04-30T16:11:00.483Z,98977.41
2019-04-30T16:13:33.529Z,98977.11
2019-04-30T16:16:02.969Z,98975.75
2019-04-30T16:18:49.420Z,98965.66
2019-04-30T16:21:19.397Z,98974.21
2019-04-30T16:23:49.263Z,98988.28
2019-04-30T16:26:18.765Z,98989.00
2019-04-30T16:28:49.539Z,98994.22
2019-04-30T16:31:20.568Z,98998.08
2019-04-30T16:33:50.099Z,98996.19
2019-04-30T16:36:19.525Z,99005.36
2019-04-30T16:38:48.955Z,99002.92
2019-04-30T16:41:30.422Z,99002.02
2019-04-30T16:43:49.565Z,99009.83
2019-04-30T16:46:18.971Z,99010.84
2019-04-30T16:48:49.302Z,99022.36
2019-04-30T16:51:18.906Z,99036.45
2019-04-30T16:53:48.754Z,99033.30
2019-04-30T16:56:18.682Z,99032.48
2019-04-30T16:59:01.076Z,99033.48
2019-04-30T17:01:31.159Z,99027.58
2019-04-30T17:04:09.019Z,99036.88
2019-04-30T17:06:40.336Z,99030.40
2019-04-30T17:09:19.462Z,99023.13
2019-04-30T17:12:00.981Z,99028.47
2019-04-30T17:14:31.519Z,99048.66
2019-04-30T17:17:00.959Z,99035.34
2019-04-30T17:19:30.398Z,99018.41
2019-04-30T17:21:59.820Z,99005.14
2019-04-30T17:24:30.252Z,99014.02
2019-04-30T17:26:59.862Z,99040.94
2019-04-30T17:29:29.294Z,99061.78
2019-04-30T17:31:58.838Z,99085.82
2019-04-30T17:34:29.161Z,99092.45
2019-04-30T17:36:59.462Z,99086.00
2019-04-30T17:39:29.189Z,99077.14
2019-04-30T17:41:58.619Z,99047.36
2019-04-30T17:44:28.916Z,99008.70
2019-04-30T17:47:00.107Z,98987.22
2019-04-30T17:49:29.607Z,99017.11
2019-04-30T17:51:59.224Z,99052.53
2019-04-30T17:54:28.665Z,99036.73
2019-04-30T17:56:58.188Z,99034.81
2019-04-30T17:59:27.638Z,99033.65
2019-04-30T18:02:01.667Z,99025.17
2019-04-30T18:04:31.154Z,99015.03
2019-04-30T18:07:00.618Z,99015.65
2019-04-30T18:09:30.178Z,99001.83
2019-04-30T18:11:59.692Z,98997.98
2019-04-30T18:14:29.173Z,98985.46
2019-04-30T18:16:59.456Z,98992.53
2019-04-30T18:19:46.813Z,98990.41
2019-04-30T18:22:44.083Z,98981.55
2019-04-30T18:25:47.883Z,99008.89
2019-04-30T18:28:19.105Z,99024.06
2019-04-30T18:30:49.134Z,99044.92
2019-04-30T18:33:18.596Z,99044.22
2019-04-30T18:35:48.652Z,99051.95
2019-04-30T18:38:18.228Z,99051.77
2019-04-30T18:40:49.449Z,99063.61
2019-04-30T18:43:20.692Z,99059.09
2019-04-30T18:45:50.174Z,99063.20
2019-04-30T18:48:19.657Z,99070.28
2019-04-30T18:50:49.086Z,99067.84
2019-04-30T18:53:22.732Z,99073.50
2019-04-30T18:55:52.336Z,99084.42
2019-04-30T18:58:21.773Z,99082.07
2019-04-30T19:00:51.353Z,99076.71
2019-04-30T19:03:21.882Z,99077.65
2019-04-30T19:05:58.607Z,99076.76
2019-04-30T19:08:49.616Z,99073.86
2019-04-30T19:11:33.285Z,99080.61
2019-04-30T19:14:26.584Z,99079.67
2019-04-30T19:17:24.047Z,99080.40
2019-04-30T19:20:15.484Z,99066.08
2019-04-30T19:22:45.105Z,99062.06
2019-04-30T19:25:14.529Z,99052.83
2019-04-30T19:27:43.946Z,99042.34
2019-04-30T19:30:13.463Z,99052.92
2019-04-30T19:32:42.897Z,99056.83
2019-04-30T19:35:12.323Z,99059.53
2019-04-30T19:37:41.767Z,99062.16
2019-04-30T19:40:11.194Z,99062.38
2019-04-30T19:42:40.634Z,99068.70
2019-04-30T19:45:12.575Z,99079.63
2019-04-30T19:47:41.240Z,99082.64
2019-04-30T19:50:10.667Z,99085.34
2019-04-30T19:52:40.109Z,99084.72
2019-04-30T19:55:09.542Z,99092.31
2019-04-30T19:57:39.919Z,99095.73
2019-04-30T20:00:09.447Z,99097.11
2019-04-30T20:02:39.242Z,99085.59
2019-04-30T20:05:09.115Z,99096.82
2019-04-30T20:07:40.595Z,99100.34
2019-04-30T20:10:09.879Z,99106.77
2019-04-30T20:12:39.331Z,99106.89
2019-04-30T20:15:17.230Z,99108.33
2019-04-30T20:17:40.091Z,99114.58
2019-04-30T20:20:09.592Z,99109.08
2019-04-30T20:22:39.088Z,99106.16
2019-04-30T20:25:09.183Z,99109.30
2019-04-30T20:27:39.696Z,99107.75
2019-04-30T20:30:09.655Z,99107.63
2019-04-30T20:32:39.167Z,99114.06
2019-04-30T20:35:09.696Z,99116.13
2019-04-30T20:37:59.435Z,99120.88
2019-04-30T20:40:43.004Z,99119.14
2019-04-30T20:43:02.097Z,99119.23
2019-04-30T20:45:31.521Z,99122.88
2019-04-30T20:48:00.963Z,99125.88
2019-04-30T20:50:30.395Z,99127.23
2019-04-30T20:52:59.837Z,99127.22
2019-04-30T20:55:29.293Z,99132.92
2019-04-30T20:57:59.448Z,99131.06
2019-04-30T21:00:29.033Z,99134.56
2019-04-30T21:02:59.840Z,99141.91
2019-04-30T21:05:29.376Z,99146.06
2019-04-30T21:07:58.891Z,99149.58
2019-04-30T21:10:29.704Z,99149.55
2019-04-30T21:12:59.231Z,99137.63
2019-04-30T21:15:29.720Z,99138.56
2019-04-30T21:17:59.266Z,99136.23
2019-04-30T21:20:29.038Z,99146.87
2019-04-30T21:22:59.634Z,99154.52
2019-04-30T21:25:29.404Z,99154.01
2019-04-30T21:27:59.936Z,99155.66
2019-04-30T21:30:29.600Z,99159.48
2019-04-30T21:33:09.313Z,99159.88
2019-04-30T21:35:51.367Z,99158.85
2019-04-30T21:38:20.882Z,99169.30
2019-04-30T21:40:50.398Z,99177.70
2019-04-30T21:43:19.832Z,99178.33
2019-04-30T21:45:49.413Z,99181.95
2019-04-30T21:48:19.254Z,99184.56
2019-04-30T21:50:49.736Z,99181.30
2019-04-30T21:53:19.655Z,99177.52
2019-04-30T21:55:49.795Z,99175.38
2019-04-30T21:58:20.420Z,99181.01
2019-04-30T22:01:19.847Z,99175.85
2019-04-30T22:03:49.388Z,99175.45
2019-04-30T22:06:19.566Z,99176.59
2019-04-30T22:08:49.124Z,99175.66
2019-04-30T22:11:19.758Z,99171.81
2019-04-30T22:13:49.543Z,99174.81
2019-04-30T22:16:20.455Z,99180.75
2019-04-30T22:18:50.117Z,99181.05
2019-04-30T22:21:19.543Z,99176.16
2019-04-30T22:23:48.969Z,99179.59
2019-04-30T22:26:18.445Z,99176.69
2019-04-30T22:28:49.358Z,99182.69
2019-04-30T22:31:19.697Z,99181.21
2019-04-30T22:33:49.350Z,99177.79
2019-04-30T22:36:43.481Z,99174.37
2019-04-30T22:39:30.652Z,99173.64
2019-04-30T22:42:29.914Z,99164.92
2019-04-30T22:44:59.890Z,99164.39
2019-04-30T22:47:29.319Z,99164.84
2019-04-30T22:49:58.754Z,99167.53
2019-04-30T22:52:28.172Z,99159.84
2019-04-30T22:54:57.590Z,99161.92
2019-04-30T22:57:27.013Z,99159.15
2019-04-30T22:59:56.453Z,99155.20
2019-04-30T23:02:44.728Z,99152.83
2019-04-30T23:05:16.305Z,99149.73
2019-04-30T23:07:45.833Z,99139.55
2019-04-30T23:10:15.424Z,99135.92
2019-04-30T23:12:44.932Z,99131.66
2019-04-30T23:15:14.341Z,99128.46
2019-04-30T23:17:43.767Z,99131.64
2019-04-30T23:20:13.316Z,99132.47
2019-04-30T23:22:42.824Z,99135.20
2019-04-30T23:25:12.272Z,99133.94
2019-04-30T23:27:41.746Z,99131.11
2019-04-30T23:30:11.183Z,99137.31
2019-04-30T23:32:40.619Z,99132.95
2019-04-30T23:35:10.058Z,99132.70
2019-04-30T23:37:39.510Z,99129.80
2019-04-30T23:40:47.211Z,99125.39
2019-04-30T23:43:16.681Z,99123.95
2019-04-30T23:45:46.152Z,99123.52
2019-04-30T23:48:15.600Z,99123.69
2019-04-30T23:50:45.062Z,99123.44
2019-04-30T23:53:14.512Z,99121.69
2019-04-30T23:55:43.913Z,99118.48
2019-04-30T23:58:13.350Z,99123.37
